createdAt,value
2019-01-05T00:02:51.650Z,4.40
2019-01-05T00:08:28.838Z,4.38
2019-01-05T00:13:54.738Z,4.43
2019-01-05T00:19:18.924Z,4.45
2019-01-05T00:24:57.333Z,4.45
2019-01-05T00:30:24.323Z,4.44
2019-01-05T00:36:01.536Z,4.48
2019-01-05T00:41:25.002Z,4.48
2019-01-05T00:46:48.395Z,4.52
2019-01-05T00:52:15.659Z,4.54
2019-01-05T00:57:46.618Z,4.53
2019-01-05T01:03:09.515Z,4.51
2019-01-05T01:08:49.052Z,4.54
2019-01-05T01:14:11.956Z,4.64
2019-01-05T01:19:45.122Z,4.65
2019-01-05T01:25:08.891Z,4.63
2019-01-05T01:30:31.504Z,4.66
2019-01-05T01:36:00.203Z,4.59
2019-01-05T01:41:43.260Z,4.66
2019-01-05T01:47:17.304Z,4.71
2019-01-05T01:53:05.074Z,4.78
2019-01-05T01:58:29.360Z,4.74
2019-01-05T02:03:53.920Z,4.80
2019-01-05T02:09:19.480Z,4.84
2019-01-05T02:14:48.622Z,4.77
2019-01-05T02:20:39.564Z,4.88
2019-01-05T02:26:39.436Z,4.87
2019-01-05T02:32:22.578Z,4.97
2019-01-05T02:38:32.756Z,4.98
2019-01-05T02:45:01.177Z,5.05
2019-01-05T02:51:45.186Z,4.96
2019-01-05T02:57:52.728Z,5.03
2019-01-05T03:03:48.196Z,5.03
2019-01-05T03:09:43.121Z,5.04
2019-01-05T03:15:19.387Z,5.12
2019-01-05T03:21:20.640Z,5.17
2019-01-05T03:27:20.178Z,5.13
2019-01-05T03:33:11.689Z,5.14
2019-01-05T03:39:16.183Z,5.19
2019-01-05T03:45:19.395Z,5.20
2019-01-05T03:51:29.618Z,5.18
2019-01-05T03:57:25.932Z,5.25
2019-01-05T04:03:34.643Z,5.27
2019-01-05T04:09:26.290Z,5.27
2019-01-05T04:15:28.825Z,5.31
2019-01-05T04:21:28.754Z,5.32
2019-01-05T04:27:33.357Z,5.31
2019-01-05T04:33:28.942Z,5.32
2019-01-05T04:39:28.904Z,5.31
2019-01-05T04:45:26.203Z,5.33
2019-01-05T04:51:49.772Z,5.41
2019-01-05T04:58:02.312Z,5.37
2019-01-05T05:04:17.400Z,5.38
2019-01-05T05:09:58.498Z,5.39
2019-01-05T05:16:08.300Z,5.41
2019-01-05T05:22:30.404Z,5.45
2019-01-05T05:28:37.668Z,5.47
2019-01-05T05:34:27.953Z,5.52
2019-01-05T05:40:41.050Z,5.47
2019-01-05T05:47:00.941Z,5.46
2019-01-05T05:53:06.615Z,5.48
2019-01-05T05:59:17.471Z,5.53
2019-01-05T06:05:26.004Z,5.57
2019-01-05T06:11:27.669Z,5.58
2019-01-05T06:17:21.147Z,5.60
2019-01-05T06:23:30.041Z,5.60
2019-01-05T06:29:46.759Z,5.60
2019-01-05T06:36:05.251Z,5.65
2019-01-05T06:42:13.644Z,5.80
2019-01-05T06:48:25.183Z,5.84
2019-01-05T06:54:30.829Z,5.99
2019-01-05T07:00:28.740Z,6.16
2019-01-05T07:06:26.443Z,6.26
2019-01-05T07:12:25.317Z,6.40
2019-01-05T07:18:46.862Z,6.48
2019-01-05T07:24:45.411Z,6.55
2019-01-05T07:30:44.987Z,6.54
2019-01-05T07:36:35.284Z,6.60
2019-01-05T07:42:46.421Z,6.69
2019-01-05T07:48:55.518Z,6.70
2019-01-05T07:54:54.649Z,6.72
2019-01-05T08:00:53.233Z,6.78
2019-01-05T08:07:00.307Z,6.77
2019-01-05T08:12:59.513Z,6.76
2019-01-05T08:19:13.161Z,6.73
2019-01-05T08:25:23.269Z,6.80
2019-01-05T08:31:23.927Z,6.85
2019-01-05T08:37:30.933Z,6.85
2019-01-05T08:43:37.969Z,6.91
2019-01-05T08:49:26.155Z,6.98
2019-01-05T08:55:28.930Z,7.01
2019-01-05T09:01:44.644Z,7.10
2019-01-05T09:07:43.512Z,7.12
2019-01-05T09:13:53.119Z,7.14
2019-01-05T09:20:06.766Z,7.18
2019-01-05T09:26:10.059Z,7.24
2019-01-05T09:32:15.281Z,7.21
2019-01-05T09:38:09.257Z,7.23
2019-01-05T09:44:23.331Z,7.28
2019-01-05T09:50:38.553Z,7.25
2019-01-05T09:56:42.154Z,7.21
2019-01-05T10:02:42.261Z,7.25
2019-01-05T10:08:35.482Z,7.28
2019-01-05T10:14:38.427Z,7.33
2019-01-05T10:20:26.311Z,7.33
2019-01-05T10:26:44.063Z,7.38
2019-01-05T10:32:41.771Z,7.38
2019-01-05T10:38:42.835Z,7.45
2019-01-05T10:44:25.922Z,7.43
2019-01-05T10:50:24.507Z,7.48
2019-01-05T10:56:31.655Z,7.45
2019-01-05T11:02:44.836Z,7.40
2019-01-05T11:09:00.189Z,7.44
2019-01-05T11:15:17.147Z,7.43
2019-01-05T11:21:23.052Z,7.48
2019-01-05T11:27:42.938Z,7.51
2019-01-05T11:33:53.711Z,7.49
2019-01-05T11:40:09.411Z,7.55
2019-01-05T11:46:08.031Z,7.58
2019-01-05T11:52:15.398Z,7.58
2019-01-05T11:57:59.595Z,7.67
2019-01-05T12:04:00.601Z,7.77
2019-01-05T12:10:06.337Z,7.83
2019-01-05T12:15:54.243Z,7.89
2019-01-05T12:22:10.540Z,7.93
2019-01-05T12:28:20.304Z,7.89
2019-01-05T12:34:20.557Z,7.95
2019-01-05T12:40:26.493Z,7.94
2019-01-05T12:46:28.799Z,8.02
2019-01-05T12:52:42.584Z,8.03
2019-01-05T12:58:46.281Z,8.05
2019-01-05T13:05:00.977Z,8.10
2019-01-05T13:11:25.931Z,7.96
2019-01-05T13:17:30.102Z,7.93
2019-01-05T13:24:00.109Z,7.89
2019-01-05T13:30:14.470Z,8.06
2019-01-05T13:36:18.251Z,8.16
2019-01-05T13:42:22.658Z,8.07
2019-01-05T13:48:22.187Z,8.02
2019-01-05T13:54:05.755Z,8.05
2019-01-05T13:59:31.436Z,8.07
2019-01-05T14:04:57.214Z,8.08
2019-01-05T14:10:20.193Z,7.98
2019-01-05T14:15:38.935Z,7.93
2019-01-05T14:21:16.690Z,7.96
2019-01-05T14:26:40.869Z,7.95
2019-01-05T14:32:06.607Z,7.93
2019-01-05T14:37:31.055Z,8.01
2019-01-05T14:42:54.461Z,7.93
2019-01-05T14:48:17.697Z,7.89
2019-01-05T14:54:00.004Z,7.80
2019-01-05T14:59:25.011Z,7.79
2019-01-05T15:04:48.540Z,7.77
2019-01-05T15:10:18.866Z,7.77
2019-01-05T15:15:49.089Z,7.72
2019-01-05T15:21:12.101Z,7.72
2019-01-05T15:26:39.347Z,7.68
2019-01-05T15:32:02.995Z,7.70
2019-01-05T15:37:30.009Z,7.73
2019-01-05T15:42:57.825Z,7.71
2019-01-05T15:48:31.450Z,7.68
2019-01-05T15:54:07.779Z,7.72
2019-01-05T15:59:30.482Z,7.63
2019-01-05T16:04:53.623Z,7.66
2019-01-05T16:10:18.805Z,7.72
2019-01-05T16:15:58.251Z,7.74
2019-01-05T16:21:34.111Z,7.66
2019-01-05T16:27:10.396Z,7.67
2019-01-05T16:32:33.475Z,7.66
2019-01-05T16:37:53.913Z,7.66
2019-01-05T16:43:28.274Z,7.69
2019-01-05T16:49:04.897Z,7.66
2019-01-05T16:54:34.785Z,7.61
2019-01-05T16:59:58.452Z,7.64
2019-01-05T17:05:31.946Z,7.67
2019-01-05T17:10:56.179Z,7.65
2019-01-05T17:16:26.400Z,7.61
2019-01-05T17:21:45.711Z,7.68
2019-01-05T17:27:08.649Z,7.70
2019-01-05T17:32:38.620Z,7.63
2019-01-05T17:38:05.919Z,7.61
2019-01-05T17:43:45.326Z,7.56
2019-01-05T17:49:09.598Z,7.65
2019-01-05T17:54:36.109Z,7.71
2019-01-05T17:59:58.811Z,7.67
2019-01-05T18:05:23.233Z,7.65
2019-01-05T18:10:46.308Z,7.59
2019-01-05T18:16:12.199Z,7.58
2019-01-05T18:21:42.304Z,7.58
2019-01-05T18:26:59.248Z,7.67
2019-01-05T18:32:32.480Z,7.75
2019-01-05T18:37:55.771Z,7.71
2019-01-05T18:43:18.845Z,7.67
2019-01-05T18:48:52.033Z,7.63
2019-01-05T18:54:30.476Z,7.59
2019-01-05T19:00:12.878Z,7.57
2019-01-05T19:05:46.080Z,7.60
2019-01-05T19:11:08.868Z,7.55
2019-01-05T19:16:45.094Z,7.49
2019-01-05T19:22:08.115Z,7.48
2019-01-05T19:27:37.448Z,7.46
2019-01-05T19:33:00.377Z,7.47
2019-01-05T19:38:24.475Z,7.48
2019-01-05T19:44:02.222Z,7.44
2019-01-05T19:49:29.317Z,7.53
2019-01-05T19:55:02.863Z,7.51
2019-01-05T20:00:26.545Z,7.53
2019-01-05T20:05:57.214Z,7.48
2019-01-05T20:11:23.611Z,7.52
2019-01-05T20:16:50.955Z,7.54
2019-01-05T20:22:14.040Z,7.53
2019-01-05T20:27:37.319Z,7.56
2019-01-05T20:33:07.027Z,7.56
2019-01-05T20:38:34.361Z,7.53
2019-01-05T20:43:57.422Z,7.56
2019-01-05T20:49:30.649Z,7.52
2019-01-05T20:54:57.798Z,7.49
2019-01-05T21:00:28.675Z,7.43
2019-01-05T21:05:54.302Z,7.44
2019-01-05T21:11:18.535Z,7.41
2019-01-05T21:17:01.522Z,7.33
2019-01-05T21:22:36.414Z,7.28
2019-01-05T21:27:59.104Z,7.18
2019-01-05T21:33:25.912Z,7.14
2019-01-05T21:38:46.617Z,7.13
2019-01-05T21:44:23.030Z,7.16
2019-01-05T21:49:47.106Z,7.13
2019-01-05T21:55:10.190Z,7.05
2019-01-05T22:00:49.804Z,6.98
2019-01-05T22:06:16.797Z,6.96
2019-01-05T22:11:38.491Z,6.88
2019-01-05T22:17:10.954Z,6.90
2019-01-05T22:22:34.725Z,6.79
2019-01-05T22:28:01.840Z,6.80
2019-01-05T22:33:32.797Z,6.77
2019-01-05T22:38:59.271Z,6.79
2019-01-05T22:44:22.987Z,6.74
2019-01-05T22:49:47.024Z,6.68
2019-01-05T22:55:11.127Z,6.60
2019-01-05T23:00:37.958Z,6.53
2019-01-05T23:06:00.976Z,6.54
2019-01-05T23:11:24.065Z,6.51
2019-01-05T23:16:47.256Z,6.40
2019-01-05T23:22:16.279Z,6.33
2019-01-05T23:27:47.795Z,6.36
2019-01-05T23:33:11.827Z,6.30
2019-01-05T23:38:50.116Z,6.33
2019-01-05T23:44:09.740Z,6.31
2019-01-05T23:49:39.811Z,6.37
2019-01-05T23:54:56.902Z,6.36
